aviador You're here:

KFTY Decoded Metar

ATLANTA/FULTON in GA, USA
Report Time2017-10-19 20:53:00
UTC Time2017-10-19 21:53:36
Flight Rules vfr VFR
WindVRB at 03 kt
Visibility9999 m
Phenomena:N/A
Clouds:N/A
Expected CloudBase > 7,600 ft AGL from Temp-Dew spread
CeilingNone
Temp24°C (ISA +11)
Dew Point05°C (29% RH)
AAT21.8°C
QNH1024 hPa
Density Alt1,860 ft
Elevation863 ft
Report Wrong Elevation
Raw Report
KFTY 192053Z VRB03KT 10SM CLR 24/05 A3023 RMK AO2 SLP234 T02440050
56017=

Extra information for KFTY:More info

Metar Taf Metar & Taf Last 4 Metars F.Rules Stats Wind Profile Meteogram Temp Stats Airport Information Weather charts Add Link Nearby VenuesMetar ALERT Operation Metar Decoded Social comments

AIRNAV info for KFTY